createdAt,value
2018-05-26T00:00:26.007Z,95697
2018-05-26T00:02:54.099Z,95700
2018-05-26T00:05:22.201Z,95701
2018-05-26T00:07:50.319Z,95699
2018-05-26T00:10:18.399Z,95704
2018-05-26T00:12:46.513Z,95701
2018-05-26T00:15:14.633Z,95705
2018-05-26T00:17:42.780Z,95699
2018-05-26T00:20:10.869Z,95701
2018-05-26T00:22:38.986Z,95690
2018-05-26T00:25:07.118Z,95694
2018-05-26T00:27:35.222Z,95689
2018-05-26T00:30:03.438Z,95694
2018-05-26T00:32:31.664Z,95697
2018-05-26T00:34:59.916Z,95697
2018-05-26T00:37:28.070Z,95694
2018-05-26T00:39:56.974Z,95691
2018-05-26T00:42:25.080Z,95688
2018-05-26T00:44:53.210Z,95700
2018-05-26T00:47:21.428Z,95701
2018-05-26T00:49:49.540Z,95695
2018-05-26T00:52:17.696Z,95694
2018-05-26T00:54:45.860Z,95689
2018-05-26T00:57:14.062Z,95695
2018-05-26T00:59:42.178Z,95688
2018-05-26T01:02:10.277Z,95700
2018-05-26T01:04:38.389Z,95690
2018-05-26T01:07:06.513Z,95687
2018-05-26T01:09:34.618Z,95689
2018-05-26T01:12:02.731Z,95689
2018-05-26T01:14:30.826Z,95693
2018-05-26T01:16:58.970Z,95690
2018-05-26T01:19:27.080Z,95693
2018-05-26T01:21:55.919Z,95696
2018-05-26T01:24:24.010Z,95699
2018-05-26T01:26:52.143Z,95694
2018-05-26T01:29:20.383Z,95701
2018-05-26T01:31:48.545Z,95705
2018-05-26T01:34:16.662Z,95714
2018-05-26T01:36:44.769Z,95708
2018-05-26T01:39:13.263Z,95708
2018-05-26T01:41:41.369Z,95708
2018-05-26T01:44:09.511Z,95708
2018-05-26T01:46:37.769Z,95704
2018-05-26T01:49:05.937Z,95711
2018-05-26T01:51:34.032Z,95714
2018-05-26T01:54:02.151Z,95719
2018-05-26T01:56:30.254Z,95715
2018-05-26T01:58:58.796Z,95727
2018-05-26T02:01:26.931Z,95724
2018-05-26T02:03:55.032Z,95726
2018-05-26T02:06:23.143Z,95722
2018-05-26T02:08:52.005Z,95729
2018-05-26T02:11:20.121Z,95723
2018-05-26T02:13:48.227Z,95727
2018-05-26T02:16:16.340Z,95730
2018-05-26T02:18:44.471Z,95729
2018-05-26T02:21:12.584Z,95711
2018-05-26T02:23:40.810Z,95722
2018-05-26T02:26:08.938Z,95708
2018-05-26T02:28:37.806Z,95710
2018-05-26T02:31:05.920Z,95707
2018-05-26T02:33:34.024Z,95711
2018-05-26T02:36:02.112Z,95711
2018-05-26T02:38:30.305Z,95704
2018-05-26T02:40:58.493Z,95711
2018-05-26T02:43:26.615Z,95715
2018-05-26T02:45:54.729Z,95719
2018-05-26T02:48:23.615Z,95717
2018-05-26T02:50:51.727Z,95722
2018-05-26T02:53:19.816Z,95717
2018-05-26T02:55:47.947Z,95711
2018-05-26T02:58:16.045Z,95724
2018-05-26T03:00:44.194Z,95724
2018-05-26T03:03:12.296Z,95727
2018-05-26T03:05:45.899Z,95721
2018-05-26T03:08:20.039Z,95718
2018-05-26T03:10:53.763Z,95725
2018-05-26T03:13:27.379Z,95726
2018-05-26T03:19:04.029Z,95722
2018-05-26T03:21:32.149Z,95725
2018-05-26T03:24:00.280Z,95722
2018-05-26T03:26:28.477Z,95735
2018-05-26T03:28:56.645Z,95718
2018-05-26T03:31:24.774Z,95725
2018-05-26T03:33:52.866Z,95725
2018-05-26T03:36:21.043Z,95725
2018-05-26T03:38:49.133Z,95724
2018-05-26T03:41:17.260Z,95731
2018-05-26T03:43:45.381Z,95731
2018-05-26T03:46:13.476Z,95727
2018-05-26T03:48:41.590Z,95732
2018-05-26T03:51:09.700Z,95734
2018-05-26T03:53:37.810Z,95732
2018-05-26T03:56:23.651Z,95735
2018-05-26T03:59:09.548Z,95737
2018-05-26T04:01:37.656Z,95736
2018-05-26T04:04:05.772Z,95740
2018-05-26T04:06:33.870Z,95743
2018-05-26T04:09:01.997Z,95745
2018-05-26T04:11:30.097Z,95745
2018-05-26T04:13:58.355Z,95743
2018-05-26T04:16:26.546Z,95755
2018-05-26T04:18:54.800Z,95759
2018-05-26T04:21:23.023Z,95755
2018-05-26T04:23:51.308Z,95759
2018-05-26T04:26:20.200Z,95754
2018-05-26T04:28:48.363Z,95760
2018-05-26T04:31:16.481Z,95771
2018-05-26T04:33:44.628Z,95769
2018-05-26T04:36:12.735Z,95762
2018-05-26T04:38:40.836Z,95766
2018-05-26T04:41:09.043Z,95758
2018-05-26T04:43:37.253Z,95758
2018-05-26T04:46:05.369Z,95759
2018-05-26T04:48:33.477Z,95762
2018-05-26T04:51:01.589Z,95768
2018-05-26T04:53:29.699Z,95766
2018-05-26T04:55:57.821Z,95763
2018-05-26T04:58:25.951Z,95761
2018-05-26T05:00:54.837Z,95761
2018-05-26T05:03:22.940Z,95769
2018-05-26T05:05:51.049Z,95765
2018-05-26T05:08:19.152Z,95760
2018-05-26T05:10:47.253Z,95761
2018-05-26T05:13:15.375Z,95756
2018-05-26T05:15:43.514Z,95752
2018-05-26T05:18:11.744Z,95762
2018-05-26T05:20:40.648Z,95760
2018-05-26T05:23:08.762Z,95766
2018-05-26T05:25:36.886Z,95755
2018-05-26T05:28:05.023Z,95754
2018-05-26T05:30:33.162Z,95762
2018-05-26T05:33:01.280Z,95760
2018-05-26T05:35:29.401Z,95771
2018-05-26T05:37:57.516Z,95769
2018-05-26T05:40:25.626Z,95757
2018-05-26T05:42:53.742Z,95767
2018-05-26T05:45:21.867Z,95762
2018-05-26T05:47:49.996Z,95763
2018-05-26T05:50:18.857Z,95767
2018-05-26T05:52:46.983Z,95766
2018-05-26T05:55:15.086Z,95768
2018-05-26T05:57:43.209Z,95774
2018-05-26T06:00:11.312Z,95775
2018-05-26T06:02:39.422Z,95780
2018-05-26T06:05:07.535Z,95786
2018-05-26T06:07:35.664Z,95781
2018-05-26T06:10:03.831Z,95784
2018-05-26T06:12:31.961Z,95790
2018-05-26T06:15:00.249Z,95786
2018-05-26T06:17:28.360Z,95788
2018-05-26T06:19:56.488Z,95786
2018-05-26T06:22:24.587Z,95775
2018-05-26T06:24:52.718Z,95784
2018-05-26T06:27:20.839Z,95790
2018-05-26T06:29:49.019Z,95783
2018-05-26T06:32:17.159Z,95783
2018-05-26T06:34:45.826Z,95791
2018-05-26T06:37:13.942Z,95801
2018-05-26T06:39:42.058Z,95792
2018-05-26T06:42:10.369Z,95792
2018-05-26T06:44:38.495Z,95796
2018-05-26T06:47:06.635Z,95791
2018-05-26T06:49:34.860Z,95789
2018-05-26T06:52:03.018Z,95777
2018-05-26T06:54:31.131Z,95790
2018-05-26T06:56:59.856Z,95779
2018-05-26T06:59:27.989Z,95785
2018-05-26T07:01:56.134Z,95783
2018-05-26T07:04:24.393Z,95785
2018-05-26T07:06:52.599Z,95782
2018-05-26T07:09:20.721Z,95789
2018-05-26T07:11:48.860Z,95783
2018-05-26T07:14:17.577Z,95784
2018-05-26T07:16:45.691Z,95791
2018-05-26T07:19:13.798Z,95780
2018-05-26T07:21:41.937Z,95781
2018-05-26T07:24:10.073Z,95781
2018-05-26T07:26:38.193Z,95786
2018-05-26T07:29:06.329Z,95786
2018-05-26T07:31:34.446Z,95790
2018-05-26T07:34:02.540Z,95782
2018-05-26T07:36:30.695Z,95786
2018-05-26T07:38:58.858Z,95790
2018-05-26T07:41:27.056Z,95796
2018-05-26T07:43:55.150Z,95787
2018-05-26T07:46:23.741Z,95793
2018-05-26T07:48:51.912Z,95793
2018-05-26T07:51:20.140Z,95793
2018-05-26T07:53:48.334Z,95787
2018-05-26T07:56:16.444Z,95787
2018-05-26T07:58:44.608Z,95797
2018-05-26T08:01:13.468Z,95796
2018-05-26T08:03:42.390Z,95794
2018-05-26T08:06:10.567Z,95797
2018-05-26T08:08:38.898Z,95796
2018-05-26T08:11:07.123Z,95800
2018-05-26T08:13:35.297Z,95804
2018-05-26T08:16:03.553Z,95799
2018-05-26T08:18:32.432Z,95794
2018-05-26T08:21:01.308Z,95793
2018-05-26T08:23:29.488Z,95798
2018-05-26T08:25:57.599Z,95791
2018-05-26T08:28:25.823Z,95790
2018-05-26T08:30:53.947Z,95785
2018-05-26T08:33:23.364Z,95794
2018-05-26T08:35:51.594Z,95793
2018-05-26T08:38:19.852Z,95786
2018-05-26T08:40:47.971Z,95789
2018-05-26T08:43:16.164Z,95794
2018-05-26T08:45:44.444Z,95796
2018-05-26T08:48:12.563Z,95797
2018-05-26T08:50:41.430Z,95810
2018-05-26T08:53:09.558Z,95804
2018-05-26T08:55:37.659Z,95814
2018-05-26T08:58:05.813Z,95810
2018-05-26T09:00:33.923Z,95805
2018-05-26T09:03:02.046Z,95794
2018-05-26T09:05:30.244Z,95802
2018-05-26T09:07:58.374Z,95808
2018-05-26T09:10:26.461Z,95803
2018-05-26T09:12:54.592Z,95805
2018-05-26T09:15:22.715Z,95808
2018-05-26T09:17:50.803Z,95799
2018-05-26T09:20:19.073Z,95803
2018-05-26T09:22:47.182Z,95802
2018-05-26T09:25:15.457Z,95811
2018-05-26T09:27:43.639Z,95806
2018-05-26T09:30:11.765Z,95813
2018-05-26T09:32:39.947Z,95816
2018-05-26T09:35:08.057Z,95809
2018-05-26T09:37:36.233Z,95822
2018-05-26T09:40:04.364Z,95810
2018-05-26T09:42:32.452Z,95809
2018-05-26T09:45:00.606Z,95815
2018-05-26T09:47:28.746Z,95817
2018-05-26T09:49:56.967Z,95815
2018-05-26T09:52:25.218Z,95812
2018-05-26T09:54:53.770Z,95814
2018-05-26T09:57:22.980Z,95816
2018-05-26T09:59:51.070Z,95819
2018-05-26T10:02:19.224Z,95807
2018-05-26T10:04:47.338Z,95811
2018-05-26T10:07:15.512Z,95805
2018-05-26T10:09:43.634Z,95809
2018-05-26T10:12:15.991Z,95803
2018-05-26T10:14:45.350Z,95802
2018-05-26T10:17:13.514Z,95802
2018-05-26T10:19:41.883Z,95795
2018-05-26T10:22:10.036Z,95793
2018-05-26T10:24:38.224Z,95795
2018-05-26T10:27:06.335Z,95789
2018-05-26T10:29:34.525Z,95793
2018-05-26T10:32:02.650Z,95795
2018-05-26T10:34:30.772Z,95799
2018-05-26T10:36:58.883Z,95798
2018-05-26T10:39:27.062Z,95796
2018-05-26T10:41:55.212Z,95800
2018-05-26T10:44:23.335Z,95802
2018-05-26T10:46:51.516Z,95797
2018-05-26T10:49:19.729Z,95801
2018-05-26T10:51:47.977Z,95804
2018-05-26T10:54:16.079Z,95804
2018-05-26T10:56:44.954Z,95796
2018-05-26T10:59:13.053Z,95809
2018-05-26T11:01:42.001Z,95797
2018-05-26T11:04:10.165Z,95794
2018-05-26T11:06:47.045Z,95796
2018-05-26T11:09:15.143Z,95797
2018-05-26T11:11:43.255Z,95796
2018-05-26T11:14:11.400Z,95807
2018-05-26T11:16:39.496Z,95802
2018-05-26T11:19:07.616Z,95801
2018-05-26T11:21:35.749Z,95798
2018-05-26T11:24:04.561Z,95795
2018-05-26T11:26:33.377Z,95790
2018-05-26T11:29:01.495Z,95796
2018-05-26T11:31:29.609Z,95804
2018-05-26T11:33:57.806Z,95785
2018-05-26T11:36:25.924Z,95789
2018-05-26T11:38:54.042Z,95796
2018-05-26T11:41:22.144Z,95801
2018-05-26T11:43:50.275Z,95797
2018-05-26T11:46:18.360Z,95790
2018-05-26T11:48:46.590Z,95794
2018-05-26T11:51:14.711Z,95786
2018-05-26T11:53:42.975Z,95794
2018-05-26T11:56:11.599Z,95790
2018-05-26T11:58:39.701Z,95790
2018-05-26T12:01:07.858Z,95794
2018-05-26T12:03:35.955Z,95799
2018-05-26T12:06:04.061Z,95805
2018-05-26T12:08:32.183Z,95799
2018-05-26T12:11:00.305Z,95807
2018-05-26T12:13:28.413Z,95805
2018-05-26T12:15:56.536Z,95805
2018-05-26T12:18:24.653Z,95801
2018-05-26T12:20:52.787Z,95811
2018-05-26T12:23:20.903Z,95804
2018-05-26T12:25:49.023Z,95812
2018-05-26T12:28:17.143Z,95811
2018-05-26T12:30:45.243Z,95811
2018-05-26T12:33:13.355Z,95810
2018-05-26T12:35:41.443Z,95803
2018-05-26T12:38:09.559Z,95808
2018-05-26T12:40:37.669Z,95800
2018-05-26T12:43:05.777Z,95796
2018-05-26T12:45:33.897Z,95802
2018-05-26T12:48:01.986Z,95803
2018-05-26T12:50:30.098Z,95802
2018-05-26T12:52:58.204Z,95799
2018-05-26T12:55:26.316Z,95802
2018-05-26T12:57:54.424Z,95800
2018-05-26T13:00:22.539Z,95802
2018-05-26T13:02:50.644Z,95806
2018-05-26T13:05:18.787Z,95801
2018-05-26T13:07:46.885Z,95797
2018-05-26T13:10:15.023Z,95805
2018-05-26T13:12:43.135Z,95806
2018-05-26T13:15:11.346Z,95802
2018-05-26T13:17:39.520Z,95808
2018-05-26T13:20:07.717Z,95809
2018-05-26T13:22:36.020Z,95801
2018-05-26T13:25:04.143Z,95801
2018-05-26T13:27:32.262Z,95799
2018-05-26T13:30:00.429Z,95794
2018-05-26T13:32:28.511Z,95794
2018-05-26T13:34:56.685Z,95796
2018-05-26T13:37:24.775Z,95783
2018-05-26T13:39:53.730Z,95789
2018-05-26T13:42:21.943Z,95789
2018-05-26T13:44:50.045Z,95792
2018-05-26T13:47:18.165Z,95792
2018-05-26T13:49:46.293Z,95790
2018-05-26T13:52:14.404Z,95786
2018-05-26T13:54:42.570Z,95780
2018-05-26T13:57:10.665Z,95784
2018-05-26T13:59:38.786Z,95783
2018-05-26T14:02:06.943Z,95785
2018-05-26T14:04:35.151Z,95781
2018-05-26T14:07:03.330Z,95782
2018-05-26T14:09:31.421Z,95780
2018-05-26T14:11:59.615Z,95786
2018-05-26T14:14:27.741Z,95781
2018-05-26T14:16:55.855Z,95775
2018-05-26T14:19:23.982Z,95775
2018-05-26T14:21:52.118Z,95775
2018-05-26T14:24:20.240Z,95772
2018-05-26T14:26:48.334Z,95768
2018-05-26T14:29:16.513Z,95765
2018-05-26T14:31:44.649Z,95770
2018-05-26T14:34:12.772Z,95775
2018-05-26T14:36:40.854Z,95766
2018-05-26T14:39:08.984Z,95774
2018-05-26T14:41:37.134Z,95767
2018-05-26T14:44:05.460Z,95774
2018-05-26T14:46:33.579Z,95762
2018-05-26T14:49:01.727Z,95761
2018-05-26T14:51:29.854Z,95761
2018-05-26T14:53:57.999Z,95767
2018-05-26T14:56:26.147Z,95762
2018-05-26T14:58:54.238Z,95765
2018-05-26T15:01:22.331Z,95774
2018-05-26T15:03:50.468Z,95768
2018-05-26T15:06:18.562Z,95769
2018-05-26T15:08:46.744Z,95775
2018-05-26T15:11:14.900Z,95780
2018-05-26T15:13:43.143Z,95784
2018-05-26T15:16:11.255Z,95785
2018-05-26T15:18:39.379Z,95785
2018-05-26T15:21:07.521Z,95782
2018-05-26T15:23:35.726Z,95786
2018-05-26T15:26:04.611Z,95779
2018-05-26T15:28:33.041Z,95789
2018-05-26T15:31:01.165Z,95781
2018-05-26T15:33:29.341Z,95784
2018-05-26T15:35:57.476Z,95779
2018-05-26T15:38:25.586Z,95767
2018-05-26T15:40:53.706Z,95769
2018-05-26T15:43:21.801Z,95777
2018-05-26T15:45:49.912Z,95776
2018-05-26T15:48:18.022Z,95780
2018-05-26T15:50:46.126Z,95782
2018-05-26T15:53:14.637Z,95779
2018-05-26T15:55:43.518Z,95778
2018-05-26T15:58:11.623Z,95778
2018-05-26T16:00:39.721Z,95778
2018-05-26T16:03:07.834Z,95773
2018-05-26T16:05:35.993Z,95769
2018-05-26T16:08:04.120Z,95772
2018-05-26T16:10:32.225Z,95780
2018-05-26T16:13:05.099Z,95775
2018-05-26T16:15:34.397Z,95775
2018-05-26T16:18:02.519Z,95777
2018-05-26T16:20:30.665Z,95781
2018-05-26T16:22:58.769Z,95769
2018-05-26T16:25:26.903Z,95774
2018-05-26T16:27:55.012Z,95778
2018-05-26T16:30:23.921Z,95773
2018-05-26T16:32:52.080Z,95775
2018-05-26T16:35:20.222Z,95780
2018-05-26T16:37:48.321Z,95775
2018-05-26T16:40:16.442Z,95780
2018-05-26T16:42:44.820Z,95775
2018-05-26T16:45:12.945Z,95764
2018-05-26T16:47:41.829Z,95767
2018-05-26T16:50:09.909Z,95768
2018-05-26T16:52:38.082Z,95776
2018-05-26T16:55:06.164Z,95776
2018-05-26T16:57:34.291Z,95785
2018-05-26T17:00:02.472Z,95781
2018-05-26T17:02:30.596Z,95779
2018-05-26T17:04:58.745Z,95779
2018-05-26T17:07:27.626Z,95776
2018-05-26T17:09:55.731Z,95781
2018-05-26T17:12:23.944Z,95782
2018-05-26T17:14:52.172Z,95781
2018-05-26T17:17:20.404Z,95774
2018-05-26T17:19:48.683Z,95778
2018-05-26T17:22:16.827Z,95773
2018-05-26T17:24:45.317Z,95774
2018-05-26T17:27:13.456Z,95775
2018-05-26T17:29:41.624Z,95777
2018-05-26T17:32:09.858Z,95778
2018-05-26T17:34:37.976Z,95778
2018-05-26T17:37:06.085Z,95775
2018-05-26T17:39:34.975Z,95770
2018-05-26T17:42:03.078Z,95777
2018-05-26T17:44:31.219Z,95774
2018-05-26T17:46:59.335Z,95784
2018-05-26T17:49:27.464Z,95781
2018-05-26T17:51:55.605Z,95784
2018-05-26T17:54:23.776Z,95786
2018-05-26T17:56:51.923Z,95788
2018-05-26T17:59:20.623Z,95788
2018-05-26T18:01:48.751Z,95790
2018-05-26T18:04:16.873Z,95787
2018-05-26T18:06:44.994Z,95785
2018-05-26T18:09:13.146Z,95791
2018-05-26T18:11:41.258Z,95781
2018-05-26T18:14:09.378Z,95790
2018-05-26T18:16:37.494Z,95792
2018-05-26T18:19:05.688Z,95793
2018-05-26T18:21:33.864Z,95781
2018-05-26T18:24:02.310Z,95788
2018-05-26T18:26:30.412Z,95789
2018-05-26T18:28:58.623Z,95792
2018-05-26T18:31:26.763Z,95793
2018-05-26T18:33:55.671Z,95790
2018-05-26T18:36:23.773Z,95796
2018-05-26T18:38:51.890Z,95795
2018-05-26T18:41:22.047Z,95798
2018-05-26T18:43:50.239Z,95807
2018-05-26T18:46:18.510Z,95804
2018-05-26T18:48:46.681Z,95809
2018-05-26T18:51:14.749Z,95801
2018-05-26T18:53:44.525Z,95802
2018-05-26T18:56:27.385Z,95799
2018-05-26T18:58:55.477Z,95808
2018-05-26T19:01:23.621Z,95805
2018-05-26T19:03:51.761Z,95804
2018-05-26T19:06:21.261Z,95817
2018-05-26T19:08:55.913Z,95818
2018-05-26T19:11:36.976Z,95818
2018-05-26T19:14:05.335Z,95825
2018-05-26T19:16:33.466Z,95824
2018-05-26T19:19:01.572Z,95826
2018-05-26T19:21:30.273Z,95831
2018-05-26T19:23:59.167Z,95830
2018-05-26T19:26:27.384Z,95834
2018-05-26T19:28:55.577Z,95825
2018-05-26T19:31:23.686Z,95830
2018-05-26T19:33:51.846Z,95831
2018-05-26T19:36:19.963Z,95836
2018-05-26T19:38:48.479Z,95833
2018-05-26T19:41:16.640Z,95832
2018-05-26T19:43:44.757Z,95835
2018-05-26T19:46:12.877Z,95830
2018-05-26T19:48:40.992Z,95831
2018-05-26T19:51:09.127Z,95842
2018-05-26T19:53:37.225Z,95834
2018-05-26T19:56:05.349Z,95840
2018-05-26T19:58:33.514Z,95844
2018-05-26T20:01:01.728Z,95844
2018-05-26T20:03:29.966Z,95836
2018-05-26T20:05:58.124Z,95837
2018-05-26T20:08:26.207Z,95835
2018-05-26T20:10:55.091Z,95834
2018-05-26T20:13:23.967Z,95848
2018-05-26T20:15:52.072Z,95858
2018-05-26T20:18:20.197Z,95849
2018-05-26T20:20:48.307Z,95852
2018-05-26T20:23:16.428Z,95855
2018-05-26T20:25:44.547Z,95863
2018-05-26T20:28:13.519Z,95858
2018-05-26T20:30:41.741Z,95852
2018-05-26T20:33:09.981Z,95860
2018-05-26T20:35:38.204Z,95855
2018-05-26T20:38:06.421Z,95849
2018-05-26T20:40:34.519Z,95852
2018-05-26T20:43:02.636Z,95856
2018-05-26T20:45:30.739Z,95855
2018-05-26T20:47:58.856Z,95846
2018-05-26T20:50:26.949Z,95855
2018-05-26T20:52:55.103Z,95852
2018-05-26T20:55:23.236Z,95849
2018-05-26T20:57:51.338Z,95857
2018-05-26T21:00:19.464Z,95860
2018-05-26T21:02:47.608Z,95862
2018-05-26T21:05:15.730Z,95855
2018-05-26T21:07:43.819Z,95853
2018-05-26T21:10:11.950Z,95850
2018-05-26T21:12:40.061Z,95854
2018-05-26T21:15:08.220Z,95858
2018-05-26T21:17:36.318Z,95848
2018-05-26T21:20:04.484Z,95847
2018-05-26T21:22:32.599Z,95849
2018-05-26T21:25:00.731Z,95860
2018-05-26T21:27:29.614Z,95855
2018-05-26T21:29:58.559Z,95856
2018-05-26T21:32:26.647Z,95848
2018-05-26T21:34:55.357Z,95853
2018-05-26T21:37:23.469Z,95855
2018-05-26T21:39:51.663Z,95865
2018-05-26T21:42:19.871Z,95869
2018-05-26T21:44:48.059Z,95869
2018-05-26T21:47:16.179Z,95873
2018-05-26T21:49:44.307Z,95866
2018-05-26T21:52:13.180Z,95876
2018-05-26T21:54:41.283Z,95870
2018-05-26T21:57:09.406Z,95882
2018-05-26T21:59:37.622Z,95871
2018-05-26T22:02:05.765Z,95866
2018-05-26T22:04:33.912Z,95861
2018-05-26T22:07:02.007Z,95871
2018-05-26T22:09:30.139Z,95869
2018-05-26T22:11:58.231Z,95871
2018-05-26T22:14:26.409Z,95877
2018-05-26T22:16:54.467Z,95882
2018-05-26T22:19:22.645Z,95882
2018-05-26T22:21:50.849Z,95878
2018-05-26T22:24:19.095Z,95882
2018-05-26T22:26:47.299Z,95883
2018-05-26T22:29:15.483Z,95887
2018-05-26T22:31:43.585Z,95882
2018-05-26T22:34:11.700Z,95888
2018-05-26T22:36:39.837Z,95883
2018-05-26T22:39:07.954Z,95881
2018-05-26T22:41:36.080Z,95879
2018-05-26T22:44:04.242Z,95871
2018-05-26T22:46:32.360Z,95879
2018-05-26T22:49:00.516Z,95874
2018-05-26T22:51:29.416Z,95869
2018-05-26T22:53:57.519Z,95868
2018-05-26T22:56:25.638Z,95868
2018-05-26T22:58:53.738Z,95865
2018-05-26T23:01:21.922Z,95863
2018-05-26T23:03:50.090Z,95857
2018-05-26T23:06:18.315Z,95859
2018-05-26T23:08:46.551Z,95854
2018-05-26T23:11:14.662Z,95847
2018-05-26T23:13:42.766Z,95839
2018-05-26T23:16:11.723Z,95843
2018-05-26T23:18:40.589Z,95840
2018-05-26T23:21:08.731Z,95837
2018-05-26T23:23:36.831Z,95835
2018-05-26T23:26:04.935Z,95835
2018-05-26T23:28:33.033Z,95826
2018-05-26T23:31:01.135Z,95827
2018-05-26T23:33:29.231Z,95823
2018-05-26T23:35:58.107Z,95822
2018-05-26T23:38:26.209Z,95814
2018-05-26T23:40:55.081Z,95816
2018-05-26T23:43:23.194Z,95808
2018-05-26T23:45:51.341Z,95809
2018-05-26T23:48:19.495Z,95806
2018-05-26T23:50:47.627Z,95816
2018-05-26T23:53:15.737Z,95810
2018-05-26T23:55:43.895Z,95813
2018-05-26T23:58:11.989Z,95812
